createdAt,value
2024-03-12T00:01:10.050Z,7.52
2024-03-12T00:03:44.036Z,7.49
2024-03-12T00:06:11.838Z,7.49
2024-03-12T00:08:40.677Z,7.47
2024-03-12T00:11:08.948Z,7.46
2024-03-12T00:13:36.157Z,7.44
2024-03-12T00:16:04.818Z,7.44
2024-03-12T00:18:34.188Z,7.41
2024-03-12T00:21:04.496Z,7.41
2024-03-12T00:23:31.534Z,7.38
2024-03-12T00:25:58.521Z,7.36
2024-03-12T00:28:25.571Z,7.35
2024-03-12T00:30:55.045Z,7.34
2024-03-12T00:33:22.295Z,7.33
2024-03-12T00:35:49.473Z,7.31
2024-03-12T00:38:18.859Z,7.28
2024-03-12T00:40:52.233Z,7.27
2024-03-12T00:43:19.410Z,7.25
2024-03-12T00:45:51.308Z,7.24
2024-03-12T00:48:25.121Z,7.22
2024-03-12T00:50:52.236Z,7.21
2024-03-12T00:53:19.220Z,7.20
2024-03-12T00:55:48.478Z,7.19
2024-03-12T00:58:20.858Z,7.18
2024-03-12T01:00:50.183Z,7.17
2024-03-12T01:03:18.356Z,7.14
2024-03-12T01:08:13.612Z,7.12
2024-03-12T01:10:53.269Z,7.10
2024-03-12T01:13:48.755Z,7.08
2024-03-12T01:16:28.036Z,7.07
2024-03-12T01:18:55.245Z,7.05
2024-03-12T01:21:22.380Z,7.04
2024-03-12T01:23:49.994Z,7.04
2024-03-12T01:26:16.997Z,7.02
2024-03-12T01:28:44.048Z,7.02
2024-03-12T01:31:11.130Z,7.01
2024-03-12T01:33:38.255Z,6.99
2024-03-12T01:36:19.893Z,6.99
2024-03-12T01:38:51.685Z,6.95
2024-03-12T01:41:19.072Z,6.93
2024-03-12T01:43:56.594Z,6.91
2024-03-12T01:46:30.494Z,6.89
2024-03-12T01:48:59.774Z,6.87
2024-03-12T01:51:28.736Z,6.82
2024-03-12T01:53:57.603Z,6.80
2024-03-12T01:56:27.631Z,6.77
2024-03-12T01:58:55.113Z,6.74
2024-03-12T02:01:22.600Z,6.70
2024-03-12T02:03:53.096Z,6.67
2024-03-12T02:06:20.906Z,6.63
2024-03-12T02:08:50.190Z,6.61
2024-03-12T02:11:17.726Z,6.58
2024-03-12T02:13:44.967Z,6.54
2024-03-12T02:16:12.075Z,6.52
2024-03-12T02:18:39.467Z,6.49
2024-03-12T02:21:06.991Z,6.49
2024-03-12T02:23:47.361Z,6.47
2024-03-12T02:26:14.581Z,6.47
2024-03-12T02:28:41.623Z,6.45
2024-03-12T02:31:08.762Z,6.45
2024-03-12T02:33:36.734Z,6.44
2024-03-12T02:36:06.272Z,6.44
2024-03-12T02:38:33.324Z,6.45
2024-03-12T02:41:00.396Z,6.46
2024-03-12T02:43:28.903Z,6.46
2024-03-12T02:45:56.360Z,6.47
2024-03-12T02:48:24.753Z,6.48
2024-03-12T02:50:52.558Z,6.49
2024-03-12T02:53:19.564Z,6.50
2024-03-12T02:55:47.704Z,6.52
2024-03-12T02:58:14.906Z,6.54
2024-03-12T03:00:42.915Z,6.55
2024-03-12T03:03:09.926Z,6.57
2024-03-12T03:05:37.004Z,6.57
2024-03-12T03:08:04.367Z,6.59
2024-03-12T03:10:31.377Z,6.60
2024-03-12T03:12:58.490Z,6.61
2024-03-12T03:15:25.593Z,6.62
2024-03-12T03:17:53.848Z,6.63
2024-03-12T03:20:21.240Z,6.64
2024-03-12T03:22:48.321Z,6.65
2024-03-12T03:25:16.020Z,6.66
2024-03-12T03:27:43.589Z,6.66
2024-03-12T03:30:13.912Z,6.68
2024-03-12T03:32:41.060Z,6.70
2024-03-12T03:35:08.467Z,6.70
2024-03-12T03:37:38.222Z,6.70
2024-03-12T03:40:11.033Z,6.71
2024-03-12T03:42:43.124Z,6.72
2024-03-12T03:45:10.433Z,6.73
2024-03-12T03:47:37.562Z,6.73
2024-03-12T03:50:09.399Z,6.74
2024-03-12T03:52:38.227Z,6.75
2024-03-12T03:55:07.835Z,6.75
2024-03-12T03:57:35.234Z,6.75
2024-03-12T04:00:13.247Z,6.75
2024-03-12T04:02:40.920Z,6.77
2024-03-12T04:05:09.010Z,6.78
2024-03-12T04:07:36.077Z,6.78
2024-03-12T04:10:03.759Z,6.79
2024-03-12T04:12:30.940Z,6.80
2024-03-12T04:14:59.165Z,6.81
2024-03-12T04:17:26.320Z,6.81
2024-03-12T04:19:53.382Z,6.83
2024-03-12T04:22:20.425Z,6.85
2024-03-12T04:24:48.062Z,6.86
2024-03-12T04:27:16.147Z,6.87
2024-03-12T04:29:43.880Z,6.88
2024-03-12T04:32:11.093Z,6.90
2024-03-12T04:34:38.371Z,6.91
2024-03-12T04:37:05.800Z,6.92
2024-03-12T04:39:33.361Z,6.94
2024-03-12T04:42:03.361Z,6.95
2024-03-12T04:44:30.919Z,6.96
2024-03-12T04:46:58.425Z,6.98
2024-03-12T04:49:26.522Z,6.98
2024-03-12T04:51:54.375Z,6.99
2024-03-12T04:54:21.511Z,7.01
2024-03-12T04:56:51.724Z,7.02
2024-03-12T04:59:19.105Z,7.03
2024-03-12T05:01:48.792Z,7.04
2024-03-12T05:04:22.421Z,7.06
2024-03-12T05:06:50.912Z,7.05
2024-03-12T05:09:19.201Z,7.07
2024-03-12T05:11:46.931Z,7.09
2024-03-12T05:14:14.385Z,7.11
2024-03-12T05:16:41.429Z,7.12
2024-03-12T05:19:11.882Z,7.13
2024-03-12T05:21:39.454Z,7.14
2024-03-12T05:24:07.126Z,7.16
2024-03-12T05:26:37.377Z,7.17
2024-03-12T05:29:04.477Z,7.18
2024-03-12T05:31:33.630Z,7.19
2024-03-12T05:34:03.139Z,7.18
2024-03-12T05:36:42.946Z,7.20
2024-03-12T05:39:27.458Z,7.21
2024-03-12T05:42:12.835Z,7.22
2024-03-12T05:44:58.650Z,7.23
2024-03-12T05:47:45.148Z,7.24
2024-03-12T05:50:18.296Z,7.25
2024-03-12T05:52:49.331Z,7.25
2024-03-12T05:55:16.707Z,7.26
2024-03-12T05:57:46.864Z,7.26
2024-03-12T06:00:14.285Z,7.25
2024-03-12T06:02:43.025Z,7.26
2024-03-12T06:05:13.836Z,7.25
2024-03-12T06:07:50.879Z,7.25
2024-03-12T06:10:18.126Z,7.26
2024-03-12T06:12:45.671Z,7.26
2024-03-12T06:15:12.683Z,7.25
2024-03-12T06:17:39.782Z,7.25
2024-03-12T06:20:11.155Z,7.25
2024-03-12T06:22:38.945Z,7.25
2024-03-12T06:25:06.894Z,7.25
2024-03-12T06:27:37.551Z,7.23
2024-03-12T06:30:12.152Z,7.25
2024-03-12T06:32:39.168Z,7.24
2024-03-12T06:35:06.609Z,7.23
2024-03-12T06:37:34.162Z,7.24
2024-03-12T06:40:05.108Z,7.24
2024-03-12T06:42:32.140Z,7.25
2024-03-12T06:45:01.628Z,7.25
2024-03-12T06:47:30.042Z,7.25
2024-03-12T06:49:59.663Z,7.24
2024-03-12T06:52:27.836Z,7.25
2024-03-12T06:54:55.010Z,7.26
2024-03-12T06:57:23.378Z,7.26
2024-03-12T06:59:50.843Z,7.26
2024-03-12T07:02:18.883Z,7.27
2024-03-12T07:04:48.445Z,7.26
2024-03-12T07:07:20.616Z,7.26
2024-03-12T07:09:48.417Z,7.25
2024-03-12T07:12:17.332Z,7.26
2024-03-12T07:14:46.669Z,7.25
2024-03-12T07:17:15.409Z,7.25
2024-03-12T07:19:43.992Z,7.26
2024-03-12T07:22:12.080Z,7.25
2024-03-12T07:24:40.712Z,7.25
2024-03-12T07:27:08.666Z,7.25
2024-03-12T07:29:36.039Z,7.25
2024-03-12T07:32:04.963Z,7.27
2024-03-12T07:34:32.850Z,7.27
2024-03-12T07:37:01.613Z,7.29
2024-03-12T07:39:35.710Z,7.30
2024-03-12T07:42:15.376Z,7.31
2024-03-12T07:44:42.935Z,7.31
2024-03-12T07:47:11.684Z,7.31
2024-03-12T07:49:38.818Z,7.31
2024-03-12T07:52:10.518Z,7.31
2024-03-12T07:54:37.871Z,7.29
2024-03-12T07:57:10.998Z,7.28
2024-03-12T07:59:38.327Z,7.27
2024-03-12T08:02:12.663Z,7.26
2024-03-12T08:04:46.569Z,7.25
2024-03-12T08:07:14.722Z,7.24
2024-03-12T08:09:45.172Z,7.25
2024-03-12T08:12:16.337Z,7.24
2024-03-12T08:14:45.709Z,7.25
2024-03-12T08:17:13.652Z,7.25
2024-03-12T08:19:44.427Z,7.24
2024-03-12T08:22:12.022Z,7.24
2024-03-12T08:24:40.391Z,7.25
2024-03-12T08:27:08.309Z,7.26
2024-03-12T08:29:35.445Z,7.26
2024-03-12T08:32:02.627Z,7.27
2024-03-12T08:34:29.774Z,7.28
2024-03-12T08:36:57.592Z,7.28
2024-03-12T08:39:29.237Z,7.29
2024-03-12T08:41:56.922Z,7.30
2024-03-12T08:44:24.749Z,7.30
2024-03-12T08:46:51.771Z,7.31
2024-03-12T08:49:18.885Z,7.30
2024-03-12T08:51:46.271Z,7.31
2024-03-12T08:54:15.163Z,7.32
2024-03-12T08:56:44.161Z,7.33
2024-03-12T08:59:16.775Z,7.33
2024-03-12T09:01:44.960Z,7.35
2024-03-12T09:04:12.450Z,7.35
2024-03-12T09:06:42.039Z,7.35
2024-03-12T09:09:09.257Z,7.37
2024-03-12T09:11:37.975Z,7.37
2024-03-12T09:14:06.023Z,7.38
2024-03-12T09:16:33.148Z,7.39
2024-03-12T09:19:01.433Z,7.42
2024-03-12T09:21:29.110Z,7.44
2024-03-12T09:24:01.575Z,7.47
2024-03-12T09:26:30.280Z,7.49
2024-03-12T09:28:58.731Z,7.51
2024-03-12T09:31:26.149Z,7.54
2024-03-12T09:33:53.917Z,7.56
2024-03-12T09:36:22.265Z,7.57
2024-03-12T09:38:51.907Z,7.60
2024-03-12T09:41:21.882Z,7.61
2024-03-12T09:43:49.695Z,7.63
2024-03-12T09:46:18.143Z,7.64
2024-03-12T09:48:47.796Z,7.64
2024-03-12T09:51:15.123Z,7.67
2024-03-12T09:53:43.621Z,7.68
2024-03-12T09:56:16.390Z,7.71
2024-03-12T09:58:44.344Z,7.72
2024-03-12T10:01:13.732Z,7.74
2024-03-12T10:03:44.855Z,7.76
2024-03-12T10:06:12.012Z,7.80
2024-03-12T10:08:45.152Z,7.83
2024-03-12T10:11:22.361Z,7.87
2024-03-12T10:13:59.929Z,7.91
2024-03-12T10:16:28.829Z,7.97
2024-03-12T10:19:19.610Z,8.00
2024-03-12T10:21:47.159Z,8.06
2024-03-12T10:24:18.276Z,8.10
2024-03-12T10:26:46.126Z,8.14
2024-03-12T10:29:20.825Z,8.19
2024-03-12T10:31:49.243Z,8.24
2024-03-12T10:34:21.340Z,8.30
2024-03-12T10:36:50.684Z,8.34
2024-03-12T10:39:29.635Z,8.40
2024-03-12T10:42:00.454Z,8.47
2024-03-12T10:44:29.970Z,8.53
2024-03-12T10:46:59.870Z,8.58
2024-03-12T10:49:28.920Z,8.65
2024-03-12T10:51:57.752Z,8.70
2024-03-12T10:54:27.710Z,8.76
2024-03-12T10:56:55.821Z,8.82
2024-03-12T10:59:24.701Z,8.88
2024-03-12T11:01:52.035Z,8.93
2024-03-12T11:04:19.163Z,8.95
2024-03-12T11:06:49.877Z,8.99
2024-03-12T11:09:23.053Z,9.04
2024-03-12T11:11:53.461Z,9.08
2024-03-12T11:14:21.678Z,9.11
2024-03-12T11:16:48.957Z,9.15
2024-03-12T11:19:22.003Z,9.18
2024-03-12T11:21:50.933Z,9.22
2024-03-12T11:24:30.618Z,9.26
2024-03-12T11:27:02.061Z,9.30
2024-03-12T11:30:09.923Z,9.34
2024-03-12T11:32:50.130Z,9.37
2024-03-12T11:35:22.499Z,9.39
2024-03-12T11:40:40.629Z,9.43
2024-03-12T11:43:12.437Z,9.44
2024-03-12T11:45:46.488Z,9.46
2024-03-12T11:48:20.174Z,9.47
2024-03-12T11:51:00.290Z,9.48
2024-03-12T11:53:36.621Z,9.46
2024-03-12T11:56:05.701Z,9.46
2024-03-12T11:58:42.102Z,9.45
2024-03-12T12:01:11.613Z,9.42
2024-03-12T12:03:38.975Z,9.40
2024-03-12T12:06:07.443Z,9.37
2024-03-12T12:08:42.470Z,9.32
2024-03-12T12:11:17.019Z,9.28
2024-03-12T12:13:47.539Z,9.24
2024-03-12T12:16:18.872Z,9.21
2024-03-12T12:18:46.654Z,9.17
2024-03-12T12:21:19.775Z,9.15
2024-03-12T12:23:50.453Z,9.14
2024-03-12T12:26:23.061Z,9.13
2024-03-12T12:28:53.974Z,9.12
2024-03-12T12:31:22.852Z,9.11
2024-03-12T12:33:56.799Z,9.10
2024-03-12T12:36:31.326Z,9.09
2024-03-12T12:39:03.790Z,9.08
2024-03-12T12:41:43.392Z,9.07
2024-03-12T12:44:16.177Z,9.06
2024-03-12T12:46:44.100Z,9.02
2024-03-12T12:49:14.352Z,8.97
2024-03-12T12:51:42.665Z,8.93
2024-03-12T12:54:10.709Z,8.87
2024-03-12T12:56:47.366Z,8.81
2024-03-12T12:59:17.702Z,8.74
2024-03-12T13:01:48.341Z,8.67
2024-03-12T13:04:24.588Z,8.62
2024-03-12T13:06:54.891Z,8.53
2024-03-12T13:09:30.260Z,8.47
2024-03-12T13:11:58.557Z,8.42
2024-03-12T13:14:27.079Z,8.39
2024-03-12T13:16:55.042Z,8.35
2024-03-12T13:19:23.927Z,8.33
2024-03-12T13:21:51.734Z,8.34
2024-03-12T13:24:22.015Z,8.33
2024-03-12T13:26:49.647Z,8.32
2024-03-12T13:29:17.064Z,8.33
2024-03-12T13:31:44.764Z,8.33
2024-03-12T13:34:11.835Z,8.34
2024-03-12T13:36:38.933Z,8.36
2024-03-12T13:39:07.416Z,8.39
2024-03-12T13:41:35.742Z,8.42
2024-03-12T13:44:02.858Z,8.45
2024-03-12T13:46:30.021Z,8.50
2024-03-12T13:49:16.588Z,8.55
2024-03-12T13:51:44.656Z,8.60
2024-03-12T13:54:12.060Z,8.64
2024-03-12T13:56:39.322Z,8.67
2024-03-12T13:59:06.482Z,8.71
2024-03-12T14:01:34.275Z,8.76
2024-03-12T14:04:01.889Z,8.77
2024-03-12T14:06:31.126Z,8.82
2024-03-12T14:08:58.404Z,8.83
2024-03-12T14:11:26.739Z,8.86
2024-03-12T14:13:56.199Z,8.86
2024-03-12T14:16:24.008Z,8.88
2024-03-12T14:18:53.202Z,8.88
2024-03-12T14:21:20.462Z,8.89
2024-03-12T14:23:48.684Z,8.87
2024-03-12T14:26:18.997Z,8.87
2024-03-12T14:28:47.042Z,8.87
2024-03-12T14:31:17.494Z,8.87
2024-03-12T14:33:44.820Z,8.86
2024-03-12T14:36:11.890Z,8.85
2024-03-12T14:38:39.183Z,8.84
2024-03-12T14:41:07.465Z,8.85
2024-03-12T14:43:35.539Z,8.85
2024-03-12T14:46:05.922Z,8.85
2024-03-12T14:48:33.352Z,8.84
2024-03-12T14:51:01.059Z,8.82
2024-03-12T14:53:28.589Z,8.82
2024-03-12T14:55:55.867Z,8.82
2024-03-12T14:58:23.368Z,8.80
2024-03-12T15:00:50.671Z,8.80
2024-03-12T15:03:19.887Z,8.79
2024-03-12T15:05:54.813Z,8.76
2024-03-12T15:08:21.985Z,8.76
2024-03-12T15:10:49.126Z,8.74
2024-03-12T15:13:16.359Z,8.72
2024-03-12T15:15:43.460Z,8.71
2024-03-12T15:18:13.893Z,8.69
2024-03-12T15:20:42.743Z,8.69
2024-03-12T15:23:09.805Z,8.66
2024-03-12T15:25:36.886Z,8.65
2024-03-12T15:28:04.319Z,8.63
2024-03-12T15:30:31.942Z,8.63
2024-03-12T15:32:59.198Z,8.61
2024-03-12T15:35:26.461Z,8.60
2024-03-12T15:37:55.121Z,8.60
2024-03-12T15:40:23.716Z,8.60
2024-03-12T15:42:51.060Z,8.61
2024-03-12T15:45:18.226Z,8.62
2024-03-12T15:47:45.694Z,8.62
2024-03-12T15:50:13.610Z,8.63
2024-03-12T15:52:41.566Z,8.63
2024-03-12T15:55:09.611Z,8.64
2024-03-12T15:57:39.892Z,8.65
2024-03-12T16:00:09.463Z,8.67
2024-03-12T16:02:39.845Z,8.69
2024-03-12T16:05:07.445Z,8.70
2024-03-12T16:07:37.517Z,8.71
2024-03-12T16:10:06.178Z,8.74
2024-03-12T16:12:33.712Z,8.74
2024-03-12T16:15:01.039Z,8.76
2024-03-12T16:17:31.256Z,8.76
2024-03-12T16:19:58.531Z,8.77
2024-03-12T16:22:25.659Z,8.77
2024-03-12T16:24:52.839Z,8.78
2024-03-12T16:27:19.930Z,8.78
2024-03-12T16:29:48.445Z,8.80
2024-03-12T16:32:15.663Z,8.80
2024-03-12T16:34:42.984Z,8.78
2024-03-12T16:37:10.500Z,8.79
2024-03-12T16:39:39.844Z,8.78
2024-03-12T16:42:07.337Z,8.78
2024-03-12T16:44:34.322Z,8.77
2024-03-12T16:47:05.736Z,8.76
2024-03-12T16:49:33.916Z,8.76
2024-03-12T16:52:02.253Z,8.75
2024-03-12T16:54:31.954Z,8.74
2024-03-12T16:57:03.564Z,8.73
2024-03-12T16:59:31.808Z,8.72
2024-03-12T17:01:59.453Z,8.70
2024-03-12T17:04:27.946Z,8.69
2024-03-12T17:06:59.445Z,8.67
2024-03-12T17:09:27.067Z,8.65
2024-03-12T17:11:57.478Z,8.64
2024-03-12T17:14:30.734Z,8.61
2024-03-12T17:17:07.826Z,8.60
2024-03-12T17:19:38.236Z,8.58
2024-03-12T17:22:06.908Z,8.57
2024-03-12T17:24:35.638Z,8.55
2024-03-12T17:27:11.208Z,8.54
2024-03-12T17:29:38.633Z,8.52
2024-03-12T17:32:06.626Z,8.50
2024-03-12T17:34:34.209Z,8.49
2024-03-12T17:37:04.966Z,8.46
2024-03-12T17:39:35.296Z,8.46
2024-03-12T17:42:02.958Z,8.46
2024-03-12T17:44:30.469Z,8.44
2024-03-12T17:47:00.876Z,8.43
2024-03-12T17:49:40.972Z,8.41
2024-03-12T17:52:11.795Z,8.40
2024-03-12T17:54:39.739Z,8.40
2024-03-12T17:57:12.401Z,8.38
2024-03-12T17:59:40.812Z,8.38
2024-03-12T18:02:13.508Z,8.36
2024-03-12T18:04:42.207Z,8.36
2024-03-12T18:07:26.773Z,8.34
2024-03-12T18:09:58.207Z,8.32
2024-03-12T18:12:25.577Z,8.32
2024-03-12T18:14:52.625Z,8.31
2024-03-12T18:17:21.518Z,8.30
2024-03-12T18:19:48.686Z,8.29
2024-03-12T18:22:17.585Z,8.27
2024-03-12T18:24:47.353Z,8.25
2024-03-12T18:27:14.457Z,8.22
2024-03-12T18:29:44.164Z,8.19
2024-03-12T18:32:15.483Z,8.17
2024-03-12T18:34:43.441Z,8.14
2024-03-12T18:37:10.939Z,8.09
2024-03-12T18:39:38.189Z,8.05
2024-03-12T18:42:06.970Z,8.01
2024-03-12T18:44:34.231Z,7.95
2024-03-12T18:47:02.943Z,7.88
2024-03-12T18:49:30.379Z,7.82
2024-03-12T18:51:57.900Z,7.75
2024-03-12T18:54:25.368Z,7.69
2024-03-12T18:56:52.980Z,7.63
2024-03-12T18:59:20.412Z,7.58
2024-03-12T19:01:52.170Z,7.52
2024-03-12T19:04:31.042Z,7.47
2024-03-12T19:06:59.815Z,7.43
2024-03-12T19:09:30.355Z,7.40
2024-03-12T19:11:57.889Z,7.35
2024-03-12T19:14:25.335Z,7.32
2024-03-12T19:16:54.006Z,7.29
2024-03-12T19:19:25.060Z,7.27
2024-03-12T19:21:52.778Z,7.24
2024-03-12T19:24:19.959Z,7.24
2024-03-12T19:26:47.013Z,7.22
2024-03-12T19:29:14.046Z,7.20
2024-03-12T19:31:41.501Z,7.18
2024-03-12T19:34:16.446Z,7.17
2024-03-12T19:36:45.233Z,7.14
2024-03-12T19:39:13.408Z,7.13
2024-03-12T19:41:45.335Z,7.12
2024-03-12T19:44:13.260Z,7.09
2024-03-12T19:46:43.730Z,7.08
2024-03-12T19:49:11.208Z,7.06
2024-03-12T19:51:38.615Z,7.06
2024-03-12T19:54:09.476Z,7.04
2024-03-12T19:56:37.285Z,7.03
2024-03-12T19:59:05.901Z,7.01
2024-03-12T20:01:33.283Z,7.00
2024-03-12T20:04:00.723Z,7.00
2024-03-12T20:06:27.908Z,6.98
2024-03-12T20:08:56.213Z,6.98
2024-03-12T20:11:23.532Z,6.94
2024-03-12T20:13:51.027Z,6.95
2024-03-12T20:16:18.147Z,6.94
2024-03-12T20:18:45.939Z,6.92
2024-03-12T20:21:13.125Z,6.92
2024-03-12T20:23:42.424Z,6.91
2024-03-12T20:26:10.732Z,6.89
2024-03-12T20:28:37.741Z,6.89
2024-03-12T20:31:07.353Z,6.88
2024-03-12T20:33:34.362Z,6.87
2024-03-12T20:36:05.753Z,6.87
2024-03-12T20:38:32.933Z,6.86
2024-03-12T20:41:00.184Z,6.86
2024-03-12T20:43:28.702Z,6.85
2024-03-12T20:45:56.019Z,6.85
2024-03-12T20:48:23.488Z,6.85
2024-03-12T20:50:50.705Z,6.85
2024-03-12T20:53:18.738Z,6.83
2024-03-12T20:55:45.894Z,6.83
2024-03-12T20:58:14.704Z,6.82
2024-03-12T21:00:42.456Z,6.82
2024-03-12T21:03:12.109Z,6.83
2024-03-12T21:05:40.120Z,6.82
2024-03-12T21:08:08.117Z,6.81
2024-03-12T21:10:35.494Z,6.81
2024-03-12T21:13:02.875Z,6.81
2024-03-12T21:15:30.738Z,6.82
2024-03-12T21:17:57.826Z,6.81
2024-03-12T21:20:33.620Z,6.80
2024-03-12T21:23:04.590Z,6.80
2024-03-12T21:25:33.227Z,6.80
2024-03-12T21:28:00.489Z,6.78
2024-03-12T21:30:28.974Z,6.77
2024-03-12T21:32:59.386Z,6.77
2024-03-12T21:35:26.552Z,6.76
2024-03-12T21:37:53.701Z,6.74
2024-03-12T21:40:21.099Z,6.73
2024-03-12T21:42:48.300Z,6.72
2024-03-12T21:45:18.788Z,6.71
2024-03-12T21:47:47.841Z,6.70
2024-03-12T21:50:16.843Z,6.69
2024-03-12T21:52:44.374Z,6.67
2024-03-12T21:55:12.757Z,6.66
2024-03-12T21:57:41.603Z,6.65
2024-03-12T22:00:18.691Z,6.65
2024-03-12T22:02:45.983Z,6.64
2024-03-12T22:05:15.743Z,6.64
2024-03-12T22:07:45.131Z,6.61
2024-03-12T22:10:15.478Z,6.60
2024-03-12T22:12:42.940Z,6.59
2024-03-12T22:15:12.928Z,6.59
2024-03-12T22:17:43.488Z,6.57
2024-03-12T22:20:15.692Z,6.57
2024-03-12T22:22:45.961Z,6.57
2024-03-12T22:25:15.596Z,6.56
2024-03-12T22:27:44.975Z,6.57
2024-03-12T22:30:12.748Z,6.57
2024-03-12T22:32:43.393Z,6.57
2024-03-12T22:35:11.017Z,6.57
2024-03-12T22:37:38.761Z,6.58
2024-03-12T22:40:06.809Z,6.59
2024-03-12T22:42:34.443Z,6.57
2024-03-12T22:45:05.154Z,6.57
2024-03-12T22:47:33.507Z,6.57
2024-03-12T22:50:00.811Z,6.57
2024-03-12T22:52:29.831Z,6.57
2024-03-12T22:54:57.158Z,6.57
2024-03-12T22:57:24.677Z,6.55
2024-03-12T22:59:53.026Z,6.54
2024-03-12T23:02:20.535Z,6.53
2024-03-12T23:04:51.976Z,6.53
2024-03-12T23:07:19.724Z,6.53
2024-03-12T23:09:48.432Z,6.52
2024-03-12T23:12:16.255Z,6.51
2024-03-12T23:14:43.734Z,6.50
2024-03-12T23:17:11.181Z,6.50
2024-03-12T23:19:41.441Z,6.49
2024-03-12T23:22:10.313Z,6.48
2024-03-12T23:24:38.935Z,6.47
2024-03-12T23:27:06.217Z,6.45
2024-03-12T23:29:33.355Z,6.45
2024-03-12T23:32:01.173Z,6.43
2024-03-12T23:34:28.543Z,6.43
2024-03-12T23:36:55.730Z,6.42
2024-03-12T23:39:24.772Z,6.40
2024-03-12T23:41:53.463Z,6.42
2024-03-12T23:44:20.601Z,6.40
2024-03-12T23:46:47.780Z,6.40
2024-03-12T23:49:14.961Z,6.40
2024-03-12T23:51:42.211Z,6.38
2024-03-12T23:54:09.244Z,6.38
2024-03-12T23:56:39.316Z,6.37
2024-03-12T23:59:06.803Z,6.36
